Time;durP1;ratioP1;P1;durP2;ratioP2;P2;SDS_P1;SDS_P2;PMS_P1;PMS_P2;Temp;Humidity;BMP_temperature;BMP_pressure;BME280_temperature;BME280_humidity;BME280_pressure;Samples;Min_cycle;Max_cycle;Signal;HPM_P1;HPM_P2
2022/10/28 00:00:30;;;;;;;0.93;0.70;;;15.30;99.90;;;;;;5095890;28;20966;-86
2022/10/28 00:02:59;;;;;;;1.40;1.30;;;15.30;99.90;;;;;;5095788;28;20994;-86
2022/10/28 00:05:26;;;;;;;1.70;0.97;;;15.30;99.90;;;;;;5096148;28;20449;-85
2022/10/28 00:07:52;;;;;;;3.03;0.97;;;15.20;99.90;;;;;;5096151;28;20451;-86
2022/10/28 00:10:19;;;;;;;0.83;0.60;;;15.20;99.90;;;;;;5096140;28;20451;-86
2022/10/28 00:12:46;;;;;;;0.80;0.73;;;15.20;99.90;;;;;;5095067;28;20465;-86
2022/10/28 00:15:14;;;;;;;2.10;0.83;;;15.20;99.90;;;;;;5095591;28;20444;-86
2022/10/28 00:17:41;;;;;;;1.10;1.00;;;15.20;99.90;;;;;;5095449;28;20480;-86
2022/10/28 00:20:09;;;;;;;2.10;0.83;;;15.20;99.90;;;;;;5095969;28;20444;-86
2022/10/28 00:22:35;;;;;;;0.83;0.70;;;15.10;99.90;;;;;;5095394;28;20979;-87
2022/10/28 00:25:02;;;;;;;2.37;0.73;;;15.10;99.90;;;;;;5095713;28;20441;-86
2022/10/28 00:27:30;;;;;;;1.30;0.90;;;15.10;99.90;;;;;;5095800;28;20455;-86
2022/10/28 00:29:57;;;;;;;3.90;0.97;;;15.00;99.90;;;;;;5095215;28;20453;-84
2022/10/28 00:32:25;;;;;;;1.47;0.70;;;15.00;99.90;;;;;;5095248;28;20456;-84
2022/10/28 00:34:51;;;;;;;0.73;0.60;;;14.90;99.90;;;;;;5095322;28;20459;-84
2022/10/28 00:37:18;;;;;;;4.70;1.87;;;14.90;99.90;;;;;;5095572;28;20514;-84
2022/10/28 00:39:45;;;;;;;0.80;0.80;;;14.90;99.90;;;;;;5095376;28;20452;-85
2022/10/28 00:42:13;;;;;;;1.30;1.20;;;14.90;99.90;;;;;;5095205;28;20488;-84
2022/10/28 00:44:58;;;;;;;4.83;1.00;;;14.90;99.90;;;;;;5094911;28;20433;-83
2022/10/28 00:47:38;;;;;;;1.23;0.60;;;14.80;99.90;;;;;;5095261;28;20421;-84
2022/10/28 00:50:16;;;;;;;2.40;1.00;;;14.80;99.90;;;;;;5095371;28;20433;-84
2022/10/28 00:52:46;;;;;;;0.87;0.60;;;14.80;99.90;;;;;;5094768;28;20467;-83
2022/10/28 00:55:13;;;;;;;1.17;0.70;;;14.80;99.90;;;;;;5095323;28;20425;-84
2022/10/28 00:57:42;;;;;;;5.37;0.70;;;14.80;99.90;;;;;;5094750;28;20514;-85
2022/10/28 01:00:10;;;;;;;1.97;1.20;;;14.70;99.90;;;;;;5094653;28;20436;-84
2022/10/28 01:02:44;;;;;;;2.13;0.97;;;14.70;99.90;;;;;;5094837;28;20496;-84
2022/10/28 01:05:13;;;;;;;0.93;0.60;;;14.70;99.90;;;;;;5094924;28;20410;-84
2022/10/28 01:07:40;;;;;;;3.13;0.90;;;14.70;99.90;;;;;;5094925;28;20436;-85
2022/10/28 01:10:09;;;;;;;1.70;1.00;;;14.70;99.90;;;;;;5094592;28;20444;-84
2022/10/28 01:12:43;;;;;;;1.57;0.80;;;14.70;99.90;;;;;;5094717;28;20475;-85
2022/10/28 01:15:18;;;;;;;0.60;0.60;;;14.70;99.90;;;;;;5094376;28;20444;-84
2022/10/28 01:17:56;;;;;;;2.23;0.80;;;14.70;99.90;;;;;;5094210;28;20487;-84
2022/10/28 01:20:43;;;;;;;0.50;0.50;;;14.70;99.90;;;;;;5094390;28;20778;-84
2022/10/28 01:23:15;;;;;;;0.77;0.77;;;14.70;99.90;;;;;;5090973;28;20480;-84
2022/10/28 01:25:59;;;;;;;0.90;0.90;;;14.70;99.90;;;;;;5093587;28;20429;-85
2022/10/28 01:28:46;;;;;;;0.70;0.60;;;14.80;99.90;;;;;;5094472;28;20437;-84
2022/10/28 01:31:28;;;;;;;1.10;0.63;;;14.80;99.90;;;;;;5094776;28;20834;-84
2022/10/28 01:34:07;;;;;;;2.20;1.17;;;14.80;99.90;;;;;;5094143;28;20438;-84
2022/10/28 01:36:40;;;;;;;5.70;0.70;;;14.70;99.90;;;;;;5095006;28;20437;-84
2022/10/28 01:39:19;;;;;;;1.17;0.80;;;14.70;99.90;;;;;;5094256;28;20432;-85
2022/10/28 01:41:52;;;;;;;0.77;0.77;;;14.70;99.90;;;;;;5094166;28;20465;-84
2022/10/28 01:44:27;;;;;;;3.70;0.97;;;14.70;99.90;;;;;;5094276;28;20769;-84
2022/10/28 01:47:03;;;;;;;0.70;0.60;;;14.70;99.90;;;;;;5094362;28;20432;-84
2022/10/28 01:49:38;;;;;;;0.97;0.97;;;14.70;99.90;;;;;;5093881;28;20440;-84
2022/10/28 01:52:09;;;;;;;4.83;0.77;;;14.70;99.90;;;;;;5094259;28;20465;-84
2022/10/28 01:54:37;;;;;;;0.70;0.50;;;14.70;99.90;;;;;;5093854;28;20433;-84
2022/10/28 01:57:05;;;;;;;0.90;0.90;;;14.70;99.90;;;;;;5093712;28;20965;-84
2022/10/28 01:59:34;;;;;;;5.90;1.10;;;14.70;99.90;;;;;;5093807;28;20475;-84
2022/10/28 02:02:02;;;;;;;1.60;0.90;;;14.60;99.90;;;;;;5093491;28;20463;-85
2022/10/28 02:04:29;;;;;;;1.63;0.83;;;14.60;99.90;;;;;;5093888;28;20449;-84
2022/10/28 02:06:58;;;;;;;2.63;0.60;;;14.60;99.90;;;;;;5093949;28;20445;-84
2022/10/28 02:09:34;;;;;;;2.93;0.83;;;14.60;99.90;;;;;;5093571;28;20935;-84
2022/10/28 02:12:18;;;;;;;1.37;0.60;;;14.50;99.90;;;;;;5093653;28;20457;-84
2022/10/28 02:15:10;;;;;;;3.43;0.67;;;14.50;99.90;;;;;;5093922;28;20412;-84
2022/10/28 02:17:52;;;;;;;0.80;0.80;;;14.50;99.90;;;;;;5093291;28;20476;-84
2022/10/28 02:20:32;;;;;;;0.90;0.60;;;14.50;99.90;;;;;;5093566;28;20436;-85
2022/10/28 02:23:10;;;;;;;4.63;0.73;;;14.50;99.90;;;;;;5093595;28;20460;-84
2022/10/28 02:25:42;;;;;;;1.27;0.90;;;14.40;99.90;;;;;;5093598;28;20433;-85
2022/10/28 02:28:12;;;;;;;0.80;0.77;;;14.40;99.90;;;;;;5093380;28;20409;-85
2022/10/28 02:30:45;;;;;;;0.80;0.80;;;14.40;99.90;;;;;;5093270;28;20459;-84
2022/10/28 02:33:19;;;;;;;1.63;0.87;;;14.40;99.90;;;;;;5093535;28;20425;-84
2022/10/28 02:35:51;;;;;;;0.63;0.63;;;14.50;99.90;;;;;;5093259;28;20800;-84
2022/10/28 02:38:22;;;;;;;3.57;1.10;;;14.40;99.90;;;;;;5093346;28;20416;-84
2022/10/28 02:40:54;;;;;;;1.13;0.53;;;14.50;99.90;;;;;;5093462;28;20470;-84
2022/10/28 02:43:23;;;;;;;3.60;0.90;;;14.40;99.90;;;;;;5093187;28;20960;-84
2022/10/28 02:45:54;;;;;;;2.00;1.17;;;14.50;99.90;;;;;;5093105;28;20970;-84
2022/10/28 02:48:28;;;;;;;4.63;0.80;;;14.40;99.90;;;;;;5093521;28;20441;-84
2022/10/28 02:50:58;;;;;;;0.73;0.70;;;14.40;99.90;;;;;;5093172;28;20464;-85
2022/10/28 02:53:31;;;;;;;1.57;1.13;;;14.40;99.90;;;;;;5093536;28;20459;-84
2022/10/28 02:56:02;;;;;;;1.67;0.97;;;14.40;99.90;;;;;;5093200;28;20462;-84
2022/10/28 02:58:29;;;;;;;1.00;0.60;;;14.30;99.90;;;;;;5093359;28;20464;-84
2022/10/28 03:00:56;;;;;;;2.50;0.60;;;14.30;99.90;;;;;;5092866;28;20453;-84
2022/10/28 03:03:24;;;;;;;1.67;1.00;;;14.20;99.90;;;;;;5093250;28;20483;-84
2022/10/28 03:05:51;;;;;;;1.20;0.87;;;14.30;99.90;;;;;;5093152;28;20449;-84
2022/10/28 03:08:18;;;;;;;0.90;0.60;;;14.30;99.90;;;;;;5093344;28;20463;-84
2022/10/28 03:10:44;;;;;;;0.80;0.80;;;14.30;99.90;;;;;;5093262;28;20472;-84
2022/10/28 03:13:11;;;;;;;1.20;0.63;;;14.30;99.90;;;;;;5093054;28;20441;-84
2022/10/28 03:15:38;;;;;;;0.80;0.80;;;14.40;99.90;;;;;;5092716;28;20445;-84
2022/10/28 03:18:05;;;;;;;0.90;0.60;;;14.50;99.90;;;;;;5093126;28;20455;-84
2022/10/28 03:20:33;;;;;;;0.90;0.60;;;14.50;99.90;;;;;;5093165;28;20462;-84
2022/10/28 03:23:00;;;;;;;0.80;0.80;;;14.60;99.90;;;;;;5094993;28;20480;-84
2022/10/28 03:25:26;;;;;;;1.53;0.50;;;14.70;99.90;;;;;;5092846;28;20459;-84
2022/10/28 03:27:53;;;;;;;1.47;0.60;;;14.70;99.90;;;;;;5093040;28;20444;-84
2022/10/28 03:30:20;;;;;;;2.90;0.80;;;14.80;99.90;;;;;;5093027;28;20532;-84
2022/10/28 03:32:47;;;;;;;1.50;0.57;;;14.80;99.90;;;;;;5093027;28;20460;-84
2022/10/28 03:35:13;;;;;;;2.23;0.80;;;14.90;99.90;;;;;;5092941;28;20519;-84
2022/10/28 03:37:43;;;;;;;0.67;0.67;;;14.80;99.90;;;;;;5092702;28;20452;-84
2022/10/28 03:40:11;;;;;;;1.23;1.00;;;14.80;99.90;;;;;;5092914;28;20460;-84
2022/10/28 03:42:39;;;;;;;0.70;0.70;;;14.90;99.90;;;;;;5092566;28;20507;-84
2022/10/28 03:45:07;;;;;;;0.70;0.70;;;14.90;99.90;;;;;;5092839;28;20453;-84
2022/10/28 03:47:34;;;;;;;0.50;0.50;;;14.90;99.90;;;;;;5092742;28;20463;-84
2022/10/28 03:50:01;;;;;;;5.60;0.77;;;15.00;99.90;;;;;;5095959;28;20444;-84
2022/10/28 03:52:28;;;;;;;0.67;0.53;;;15.00;99.90;;;;;;5096438;28;20470;-85
2022/10/28 03:54:57;;;;;;;0.60;0.57;;;15.00;99.90;;;;;;5096438;28;20455;-84
2022/10/28 03:57:23;;;;;;;1.47;0.50;;;15.10;99.90;;;;;;5096341;28;20440;-84
2022/10/28 03:59:50;;;;;;;0.67;0.43;;;15.10;99.90;;;;;;5096043;28;20472;-84
2022/10/28 04:02:17;;;;;;;1.73;0.80;;;15.10;99.90;;;;;;5096085;28;20467;-85
2022/10/28 04:04:44;;;;;;;1.20;0.57;;;15.10;99.90;;;;;;5096116;28;20488;-84
2022/10/28 04:07:11;;;;;;;1.13;0.60;;;15.10;99.90;;;;;;5095911;28;20443;-84
2022/10/28 04:09:37;;;;;;;0.40;0.40;;;15.20;99.90;;;;;;5095960;28;20436;-85
2022/10/28 04:12:06;;;;;;;0.80;0.60;;;15.20;99.90;;;;;;5095637;28;20476;-84
2022/10/28 04:14:33;;;;;;;1.23;0.60;;;15.20;99.90;;;;;;5095752;28;20443;-84
2022/10/28 04:16:59;;;;;;;0.70;0.70;;;15.30;99.90;;;;;;5095462;28;20998;-84
2022/10/28 04:19:26;;;;;;;0.70;0.50;;;15.30;99.90;;;;;;5095826;28;20449;-84
2022/10/28 04:21:53;;;;;;;0.67;0.67;;;15.40;99.90;;;;;;5095729;28;20468;-84
2022/10/28 04:24:20;;;;;;;1.37;0.60;;;15.40;99.90;;;;;;5095373;28;20482;-84
2022/10/28 04:26:46;;;;;;;0.60;0.60;;;15.50;99.90;;;;;;5095650;28;20638;-84
2022/10/28 04:29:15;;;;;;;1.17;1.07;;;15.50;99.90;;;;;;5095632;28;20459;-84
2022/10/28 04:31:41;;;;;;;0.60;0.57;;;15.60;99.90;;;;;;5095459;28;20468;-83
2022/10/28 04:34:08;;;;;;;1.47;0.50;;;15.60;99.90;;;;;;5095617;28;20441;-84
2022/10/28 04:36:35;;;;;;;1.67;0.43;;;15.60;99.90;;;;;;5095520;28;20448;-85
2022/10/28 04:39:02;;;;;;;0.57;0.57;;;15.70;99.90;;;;;;5095560;28;20823;-85
2022/10/28 04:41:28;;;;;;;3.87;0.77;;;15.70;99.90;;;;;;5095244;28;20483;-84
2022/10/28 04:43:55;;;;;;;0.97;0.80;;;15.70;99.90;;;;;;5095325;28;20487;-84
2022/10/28 04:46:24;;;;;;;0.90;0.90;;;15.70;99.90;;;;;;5095066;28;20936;-84
2022/10/28 04:48:50;;;;;;;2.50;0.60;;;15.60;99.90;;;;;;5095114;28;20460;-83
2022/10/28 04:51:17;;;;;;;1.33;0.60;;;15.60;99.90;;;;;;5094827;28;20472;-84
2022/10/28 04:53:44;;;;;;;1.50;1.20;;;15.60;99.90;;;;;;5095124;28;20543;-84
2022/10/28 04:56:11;;;;;;;0.50;0.50;;;15.60;99.90;;;;;;5094853;28;20448;-84
2022/10/28 04:58:37;;;;;;;1.00;0.60;;;15.50;99.90;;;;;;5095743;28;20830;-85
2022/10/28 05:01:08;;;;;;;1.87;0.73;;;15.50;99.90;;;;;;5094452;28;20991;-84
2022/10/28 05:03:36;;;;;;;2.63;0.87;;;15.50;99.90;;;;;;5095050;28;20480;-85
2022/10/28 05:06:03;;;;;;;2.17;1.10;;;15.50;99.90;;;;;;5094782;28;20444;-85
2022/10/28 05:08:30;;;;;;;1.07;0.77;;;15.40;99.90;;;;;;5095043;28;20471;-84
2022/10/28 05:10:57;;;;;;;0.60;0.60;;;15.30;99.90;;;;;;5094882;28;20470;-84
2022/10/28 05:13:24;;;;;;;3.13;0.80;;;15.30;99.90;;;;;;5094487;28;20449;-84
2022/10/28 05:15:51;;;;;;;4.83;0.70;;;15.30;99.90;;;;;;5094693;28;20448;-84
2022/10/28 05:18:18;;;;;;;1.97;0.90;;;15.20;99.90;;;;;;5094816;28;20445;-84
2022/10/28 05:20:51;;;;;;;0.83;0.63;;;15.20;99.90;;;;;;5094597;28;20455;-84
2022/10/28 05:23:18;;;;;;;0.70;0.70;;;15.20;99.90;;;;;;5094727;28;20468;-84
2022/10/28 05:25:45;;;;;;;5.20;0.60;;;15.10;99.90;;;;;;5095702;28;20452;-84
2022/10/28 05:28:11;;;;;;;5.87;0.80;;;15.10;99.90;;;;;;5094473;28;20449;-84
2022/10/28 05:30:38;;;;;;;1.60;0.60;;;15.10;99.90;;;;;;5094581;28;20456;-84
2022/10/28 05:33:05;;;;;;;1.13;0.60;;;15.10;99.90;;;;;;5094479;28;20444;-85
2022/10/28 05:35:32;;;;;;;0.80;0.60;;;15.10;99.90;;;;;;5094328;28;20453;-84
2022/10/28 05:38:00;;;;;;;0.73;0.57;;;15.10;99.90;;;;;;5094150;28;20453;-84
2022/10/28 05:40:27;;;;;;;0.50;0.50;;;15.10;99.90;;;;;;5093927;28;20935;-85
2022/10/28 05:42:53;;;;;;;0.90;0.50;;;15.10;99.90;;;;;;5094415;28;20449;-85
2022/10/28 05:45:20;;;;;;;0.60;0.50;;;15.20;99.90;;;;;;5093989;28;20476;-84
2022/10/28 05:47:48;;;;;;;2.00;0.40;;;15.20;99.90;;;;;;5094299;28;20479;-84
2022/10/28 05:50:17;;;;;;;0.70;0.50;;;15.30;99.90;;;;;;5094284;28;20460;-84
2022/10/28 05:52:46;;;;;;;0.50;0.43;;;15.30;99.90;;;;;;5094136;28;20892;-85
2022/10/28 05:55:14;;;;;;;0.50;0.50;;;15.30;99.90;;;;;;5093812;28;20440;-85
2022/10/28 05:57:41;;;;;;;0.60;0.50;;;15.40;99.90;;;;;;5094135;28;20445;-85
2022/10/28 06:00:09;;;;;;;0.40;0.40;;;15.40;99.90;;;;;;5093810;28;20440;-85
2022/10/28 06:02:36;;;;;;;1.67;0.67;;;15.40;99.90;;;;;;5093872;28;20468;-85
2022/10/28 06:05:03;;;;;;;0.50;0.40;;;15.40;99.90;;;;;;5093897;28;20507;-85
2022/10/28 06:07:30;;;;;;;1.57;1.03;;;15.40;99.90;;;;;;5093634;28;20439;-85
2022/10/28 06:09:57;;;;;;;0.50;0.47;;;15.40;99.90;;;;;;5093804;28;20932;-85
2022/10/28 06:12:25;;;;;;;0.50;0.50;;;15.40;99.90;;;;;;5092943;28;20541;-85
2022/10/28 06:14:52;;;;;;;0.60;0.60;;;15.30;99.90;;;;;;5093868;28;20803;-85
2022/10/28 06:17:19;;;;;;;1.03;0.50;;;15.30;99.90;;;;;;5093327;28;20502;-85
2022/10/28 06:19:45;;;;;;;0.60;0.60;;;15.30;99.90;;;;;;5095171;28;20445;-85
2022/10/28 06:22:12;;;;;;;7.20;0.90;;;15.30;99.90;;;;;;5093629;28;20475;-85
2022/10/28 06:24:39;;;;;;;0.60;0.60;;;15.30;99.90;;;;;;5093746;28;20492;-85
2022/10/28 06:27:06;;;;;;;0.50;0.50;;;15.30;99.90;;;;;;5093802;28;20445;-83
2022/10/28 06:29:35;;;;;;;1.57;0.60;;;15.30;99.90;;;;;;5093868;28;20448;-85
2022/10/28 06:32:01;;;;;;;0.70;0.50;;;15.30;99.90;;;;;;5093651;28;20468;-84
2022/10/28 06:34:28;;;;;;;1.30;0.40;;;15.30;99.90;;;;;;5093456;28;20788;-85
2022/10/28 06:36:55;;;;;;;0.47;0.47;;;15.30;99.90;;;;;;5093846;28;20803;-85
2022/10/28 06:39:22;;;;;;;1.03;0.50;;;15.40;99.90;;;;;;5093568;28;20437;-85
2022/10/28 06:41:49;;;;;;;0.93;0.50;;;15.50;99.90;;;;;;5093496;28;20492;-85
2022/10/28 06:44:16;;;;;;;0.57;0.40;;;15.60;99.90;;;;;;5094475;28;20507;-85
2022/10/28 06:46:44;;;;;;;3.60;1.47;;;15.60;99.90;;;;;;5093166;28;20833;-84
2022/10/28 06:49:11;;;;;;;0.43;0.43;;;15.70;99.90;;;;;;5093306;28;20819;-85
2022/10/28 06:51:38;;;;;;;0.50;0.50;;;15.80;99.90;;;;;;5093111;28;20461;-84
2022/10/28 06:54:05;;;;;;;0.50;0.47;;;16.00;99.90;;;;;;5093449;28;20937;-85
2022/10/28 06:56:31;;;;;;;0.40;0.30;;;16.10;99.90;;;;;;5093162;28;20452;-85
2022/10/28 06:58:58;;;;;;;0.50;0.50;;;16.10;99.90;;;;;;5093089;28;20464;-85
2022/10/28 07:01:25;;;;;;;0.80;0.70;;;16.30;99.90;;;;;;5093435;28;20468;-85
2022/10/28 07:03:53;;;;;;;2.10;0.60;;;16.40;99.90;;;;;;5093907;28;20846;-85
2022/10/28 07:06:20;;;;;;;5.00;0.80;;;16.40;99.90;;;;;;5093402;28;20440;-85
2022/10/28 07:08:47;;;;;;;0.47;0.47;;;16.40;99.90;;;;;;5093304;28;20448;-85
2022/10/28 07:11:13;;;;;;;3.80;0.70;;;16.40;99.90;;;;;;5093225;28;20465;-84
2022/10/28 07:13:40;;;;;;;1.13;0.40;;;16.40;99.90;;;;;;5093281;28;20449;-85
2022/10/28 07:16:07;;;;;;;0.50;0.50;;;16.50;99.90;;;;;;5093025;28;20480;-85
2022/10/28 07:18:34;;;;;;;1.57;0.63;;;16.50;99.90;;;;;;5093246;28;20456;-85
2022/10/28 07:21:02;;;;;;;4.00;0.57;;;16.40;99.90;;;;;;5093420;28;20898;-85
2022/10/28 07:23:31;;;;;;;0.60;0.40;;;16.40;99.90;;;;;;5095604;28;20437;-86
2022/10/28 07:25:58;;;;;;;0.43;0.43;;;16.50;99.90;;;;;;5102147;28;20471;-86
2022/10/28 07:28:26;;;;;;;0.53;0.40;;;16.50;99.90;;;;;;5097102;28;20452;-86
2022/10/28 07:30:53;;;;;;;2.07;0.70;;;16.50;99.90;;;;;;5096862;28;20468;-85
2022/10/28 07:33:20;;;;;;;0.40;0.40;;;16.50;99.90;;;;;;5096646;28;20811;-85
2022/10/28 07:35:46;;;;;;;1.87;0.40;;;16.50;99.90;;;;;;5096962;28;20453;-85
2022/10/28 07:38:14;;;;;;;0.40;0.40;;;16.50;99.90;;;;;;5096903;28;20444;-84
2022/10/28 07:40:41;;;;;;;0.43;0.43;;;16.50;99.90;;;;;;5096570;28;20951;-85
2022/10/28 07:43:08;;;;;;;2.13;0.60;;;16.50;99.90;;;;;;5096827;28;20448;-84
2022/10/28 07:45:35;;;;;;;0.83;0.60;;;16.60;99.90;;;;;;5096696;28;20476;-85
2022/10/28 07:48:02;;;;;;;0.57;0.40;;;16.60;99.90;;;;;;5096666;28;20449;-85
2022/10/28 07:50:29;;;;;;;0.50;0.40;;;16.70;99.90;;;;;;5096687;28;20456;-85
2022/10/28 07:52:56;;;;;;;1.47;0.60;;;16.70;99.90;;;;;;5096799;28;20440;-85
2022/10/28 07:55:24;;;;;;;0.97;0.50;;;16.70;99.90;;;;;;5098048;28;20448;-87
2022/10/28 07:57:51;;;;;;;0.40;0.40;;;16.70;99.90;;;;;;5098506;28;20827;-87
2022/10/28 08:00:18;;;;;;;0.60;0.60;;;16.70;99.90;;;;;;5097750;28;20445;-87
2022/10/28 08:02:45;;;;;;;2.50;0.70;;;16.70;99.90;;;;;;5107197;28;20461;-86
2022/10/28 08:05:12;;;;;;;1.43;0.60;;;16.70;99.90;;;;;;5097951;28;21017;-89
2022/10/28 08:07:39;;;;;;;1.03;0.40;;;16.60;99.90;;;;;;5097506;28;20448;-90
2022/10/28 08:10:06;;;;;;;0.67;0.57;;;16.60;99.90;;;;;;5098621;28;20880;-88
2022/10/28 08:12:35;;;;;;;1.80;0.60;;;16.60;99.90;;;;;;5097521;28;20512;-89
2022/10/28 08:15:02;;;;;;;0.50;0.40;;;16.60;99.90;;;;;;5097742;28;20451;-90
2022/10/28 08:17:29;;;;;;;0.60;0.60;;;16.60;99.90;;;;;;5097477;28;20471;-89
2022/10/28 08:19:55;;;;;;;0.50;0.50;;;16.60;99.90;;;;;;5097056;28;20448;-90
2022/10/28 08:22:22;;;;;;;0.40;0.40;;;16.60;99.90;;;;;;5096749;28;20453;-90
2022/10/28 08:24:49;;;;;;;4.90;0.93;;;16.70;99.90;;;;;;5097157;28;20472;-89
2022/10/28 08:27:16;;;;;;;0.60;0.60;;;16.70;99.90;;;;;;5096777;28;20470;-89
2022/10/28 08:29:44;;;;;;;0.60;0.40;;;16.90;99.90;;;;;;5097380;28;20970;-89
2022/10/28 08:32:11;;;;;;;0.47;0.43;;;17.00;99.90;;;;;;5096780;28;20976;-89
2022/10/28 08:34:37;;;;;;;0.70;0.40;;;17.10;99.90;;;;;;5096838;28;20818;-89
2022/10/28 08:37:04;;;;;;;4.20;0.67;;;17.20;99.90;;;;;;5097181;28;20459;-89
2022/10/28 08:39:31;;;;;;;3.40;0.60;;;17.20;99.90;;;;;;5097298;28;20444;-88
2022/10/28 08:42:15;;;;;;;0.93;0.40;;;17.30;99.90;;;;;;5097024;28;20979;-90
2022/10/28 08:45:14;;;;;;;1.03;0.50;;;17.40;99.90;;;;;;5096527;28;20496;-89
2022/10/28 08:47:48;;;;;;;0.50;0.40;;;17.50;99.90;;;;;;5097075;28;20441;-90
2022/10/28 08:50:17;;;;;;;1.23;0.50;;;17.60;99.90;;;;;;5096809;28;20820;-88
2022/10/28 08:52:50;;;;;;;1.23;0.53;;;17.80;99.90;;;;;;5096813;28;20881;-82
2022/10/28 08:55:20;;;;;;;0.97;0.50;;;18.00;99.90;;;;;;5095230;28;20440;-82
2022/10/28 08:57:51;;;;;;;3.77;0.50;;;18.10;99.90;;;;;;5095221;28;20432;-82
2022/10/28 09:00:22;;;;;;;0.47;0.47;;;18.20;99.90;;;;;;5095685;28;20440;-79
2022/10/28 09:02:57;;;;;;;1.80;0.50;;;18.30;99.90;;;;;;5095067;28;20472;-78
2022/10/28 09:05:25;;;;;;;0.67;0.43;;;18.40;99.90;;;;;;5095689;28;20479;-88
2022/10/28 09:07:53;;;;;;;1.37;0.50;;;18.50;99.90;;;;;;5096148;28;20410;-88
2022/10/28 09:10:42;;;;;;;0.70;0.60;;;18.70;99.90;;;;;;5095680;28;20451;-89
2022/10/28 09:13:19;;;;;;;0.53;0.53;;;18.80;99.90;;;;;;5096108;28;20784;-88
2022/10/28 09:15:55;;;;;;;0.50;0.50;;;19.00;99.90;;;;;;5095623;28;20451;-89
2022/10/28 09:18:34;;;;;;;0.80;0.60;;;19.10;99.90;;;;;;5095739;28;20428;-88
2022/10/28 09:21:05;;;;;;;0.60;0.53;;;19.20;99.90;;;;;;5095622;28;20464;-88
2022/10/28 09:23:35;;;;;;;2.27;0.73;;;19.30;99.90;;;;;;5095798;28;20904;-88
2022/10/28 09:26:12;;;;;;;1.87;0.70;;;19.30;99.90;;;;;;5094920;28;21029;-87
2022/10/28 09:28:52;;;;;;;0.70;0.50;;;19.30;99.90;;;;;;5095560;28;20401;-87
2022/10/28 09:31:29;;;;;;;1.73;0.70;;;19.20;99.90;;;;;;5095510;28;20830;-89
2022/10/28 09:34:07;;;;;;;0.80;0.50;;;19.00;99.90;;;;;;5095295;28;20919;-89
2022/10/28 09:36:37;;;;;;;0.50;0.50;;;19.20;99.90;;;;;;5095301;28;20904;-87
2022/10/28 09:39:06;;;;;;;0.60;0.60;;;19.50;99.90;;;;;;5098129;28;20444;-88
2022/10/28 09:41:36;;;;;;;1.53;1.37;;;19.80;99.90;;;;;;5096477;28;20460;-88
2022/10/28 09:44:11;;;;;;;0.87;0.53;;;20.30;99.90;;;;;;5095475;28;20444;-88
2022/10/28 09:46:41;;;;;;;1.00;0.70;;;20.80;99.90;;;;;;5095093;28;20420;-89
2022/10/28 09:49:14;;;;;;;1.07;0.50;;;21.10;99.90;;;;;;5097178;28;20420;-89
2022/10/28 09:51:46;;;;;;;0.47;0.40;;;21.40;99.90;;;;;;5098112;28;20958;-88
2022/10/28 09:54:13;;;;;;;0.60;0.50;;;21.50;99.90;;;;;;5096344;28;20432;-88
2022/10/28 09:56:42;;;;;;;0.80;0.60;;;21.60;99.90;;;;;;5095299;28;20446;-88
2022/10/28 09:59:14;;;;;;;0.60;0.60;;;21.70;99.90;;;;;;5096281;28;20444;-88
2022/10/28 10:01:44;;;;;;;1.17;0.70;;;21.80;99.90;;;;;;5095970;28;20460;-89
2022/10/28 10:04:19;;;;;;;1.00;0.60;;;21.70;99.90;;;;;;5095913;28;20433;-89
2022/10/28 10:06:50;;;;;;;0.80;0.60;;;21.60;99.90;;;;;;5095173;28;20413;-89
2022/10/28 10:09:21;;;;;;;0.60;0.50;;;21.50;99.90;;;;;;5095975;28;20449;-89
2022/10/28 10:11:49;;;;;;;0.73;0.50;;;21.20;99.90;;;;;;5095045;28;20817;-88
2022/10/28 10:14:19;;;;;;;0.60;0.50;;;21.10;99.90;;;;;;5095111;28;20908;-89
2022/10/28 10:16:49;;;;;;;3.20;0.77;;;21.00;99.90;;;;;;5094405;28;20505;-89
2022/10/28 10:19:16;;;;;;;0.60;0.50;;;21.00;99.90;;;;;;5095081;28;20442;-90
2022/10/28 10:21:45;;;;;;;1.03;0.50;;;20.90;99.90;;;;;;5094727;28;20459;-89
2022/10/28 10:24:31;;;;;;;0.60;0.60;;;20.90;99.90;;;;;;5095055;28;20448;-89
2022/10/28 10:27:00;;;;;;;0.40;0.40;;;21.10;99.90;;;;;;5094820;28;20433;-89
2022/10/28 10:29:27;;;;;;;0.50;0.50;;;21.20;99.90;;;;;;5095008;28;20456;-89
2022/10/28 10:32:16;;;;;;;3.17;0.53;;;21.40;99.90;;;;;;5094266;28;20472;-88
2022/10/28 10:34:46;;;;;;;4.10;0.60;;;21.40;99.90;;;;;;5094351;28;20435;-88
2022/10/28 10:37:23;;;;;;;2.57;0.57;;;21.40;99.90;;;;;;5094575;28;20432;-89
2022/10/28 10:40:02;;;;;;;2.67;0.50;;;21.30;99.90;;;;;;5095102;28;20945;-88
2022/10/28 10:42:29;;;;;;;0.40;0.40;;;21.20;99.90;;;;;;5095349;28;20467;-89
2022/10/28 10:45:02;;;;;;;1.20;0.67;;;21.00;99.90;;;;;;5095337;28;20491;-87
2022/10/28 10:47:30;;;;;;;0.70;0.70;;;21.00;99.90;;;;;;5094910;28;20428;-88
2022/10/28 10:50:20;;;;;;;0.70;0.60;;;21.00;99.90;;;;;;5095401;28;20807;-89
2022/10/28 10:52:53;;;;;;;1.67;0.53;;;21.10;99.90;;;;;;5094474;28;20521;-89
2022/10/28 10:55:23;;;;;;;0.60;0.50;;;21.10;99.90;;;;;;5095567;28;20424;-88
2022/10/28 10:57:50;;;;;;;0.70;0.63;;;21.10;99.90;;;;;;5097065;28;20440;-90
2022/10/28 11:00:22;;;;;;;1.00;0.70;;;21.30;99.90;;;;;;5099553;28;20451;-89
2022/10/28 11:02:51;;;;;;;0.83;0.57;;;21.50;99.90;;;;;;5098595;28;20476;-89
2022/10/28 11:05:22;;;;;;;0.70;0.60;;;21.70;99.90;;;;;;5098406;28;20490;-89
2022/10/28 11:07:51;;;;;;;3.10;0.53;;;22.00;99.90;;;;;;5098049;28;20417;-91
2022/10/28 11:10:23;;;;;;;0.57;0.50;;;22.00;99.90;;;;;;5098523;28;20448;-89
2022/10/28 11:12:52;;;;;;;1.80;0.50;;;22.10;99.90;;;;;;5098610;28;20524;-91
2022/10/28 11:15:25;;;;;;;1.03;0.93;;;22.00;99.90;;;;;;5099008;28;20526;-90
2022/10/28 11:17:58;;;;;;;0.73;0.50;;;21.80;99.90;;;;;;5098167;28;20475;-90
2022/10/28 11:20:29;;;;;;;4.33;0.67;;;21.70;99.90;;;;;;5098695;28;20423;-91
2022/10/28 11:23:07;;;;;;;0.90;0.70;;;21.70;99.90;;;;;;5100098;28;20515;-90
2022/10/28 11:25:36;;;;;;;1.53;0.70;;;21.60;99.90;;;;;;5099299;28;20463;-90
2022/10/28 11:28:22;;;;;;;5.40;0.60;;;21.70;99.90;;;;;;5098236;28;20466;-90
2022/10/28 11:30:57;;;;;;;0.90;0.50;;;21.80;99.90;;;;;;5099047;28;20468;-89
2022/10/28 11:33:36;;;;;;;1.60;0.60;;;21.90;99.90;;;;;;5100537;28;20805;-88
2022/10/28 11:36:18;;;;;;;0.70;0.70;;;21.90;99.90;;;;;;5098607;28;20953;-90
2022/10/28 11:39:25;;;;;;;1.67;0.63;;;21.90;99.90;;;;;;5098241;28;20428;-91
2022/10/28 11:42:13;;;;;;;0.77;0.40;;;21.90;99.90;;;;;;5087094;28;20471;-89
2022/10/28 11:44:51;;;;;;;0.80;0.53;;;21.90;99.90;;;;;;5098012;28;20454;-89
2022/10/28 11:47:44;;;;;;;2.00;0.60;;;21.90;99.90;;;;;;5097808;28;20412;-89
2022/10/28 11:50:48;;;;;;;0.87;0.60;;;21.90;99.90;;;;;;5098498;28;20428;-89
2022/10/28 11:53:50;;;;;;;1.40;0.93;;;21.80;99.90;;;;;;5090916;28;20474;-89
2022/10/28 11:56:26;;;;;;;1.33;0.50;;;21.90;99.90;;;;;;5071556;28;20504;-91
2022/10/28 11:59:14;;;;;;;1.17;0.70;;;21.80;99.90;;;;;;5098138;28;20423;-90
2022/10/28 12:01:54;;;;;;;0.80;0.50;;;21.70;99.90;;;;;;5097674;28;20464;-90
2022/10/28 12:04:31;;;;;;;0.60;0.50;;;21.60;99.90;;;;;;5097399;28;20904;-89
2022/10/28 12:07:46;;;;;;;0.50;0.50;;;21.70;99.90;;;;;;5097407;28;20823;-89
2022/10/28 12:10:21;;;;;;;0.80;0.77;;;21.70;99.90;;;;;;5071798;28;20460;-91
2022/10/28 12:12:56;;;;;;;1.07;0.63;;;21.70;99.90;;;;;;5097326;28;20460;-91
2022/10/28 12:15:40;;;;;;;0.60;0.57;;;21.70;99.90;;;;;;5097458;28;20941;-91
2022/10/28 12:18:14;;;;;;;0.70;0.50;;;21.60;99.90;;;;;;5097177;28;20428;-90
2022/10/28 12:20:46;;;;;;;5.40;0.80;;;21.60;99.90;;;;;;5097216;28;20794;-89
2022/10/28 12:23:18;;;;;;;1.53;0.77;;;21.60;99.90;;;;;;5097373;28;20428;-89
2022/10/28 12:25:48;;;;;;;3.90;0.60;;;21.60;99.90;;;;;;5096882;28;21006;-90
2022/10/28 12:28:20;;;;;;;0.70;0.60;;;21.60;99.90;;;;;;5097609;28;20424;-90
2022/10/28 12:30:50;;;;;;;0.77;0.70;;;21.60;99.90;;;;;;5096837;28;20510;-90
2022/10/28 12:33:22;;;;;;;0.60;0.50;;;21.60;99.90;;;;;;5097295;28;20447;-91
2022/10/28 12:35:55;;;;;;;0.57;0.50;;;21.60;99.90;;;;;;5097028;28;20420;-89
2022/10/28 12:38:28;;;;;;;0.50;0.50;;;21.70;99.90;;;;;;5097425;28;20439;-89
2022/10/28 12:41:03;;;;;;;5.37;0.60;;;21.80;99.90;;;;;;5096639;28;20464;-90
2022/10/28 12:43:36;;;;;;;1.37;0.50;;;21.90;99.90;;;;;;5096984;28;20432;-91
2022/10/28 12:46:04;;;;;;;3.70;0.50;;;22.00;99.90;;;;;;5096411;28;20456;-90
2022/10/28 12:48:35;;;;;;;0.53;0.53;;;21.90;99.90;;;;;;5096624;28;20458;-90
2022/10/28 12:51:10;;;;;;;1.00;0.73;;;21.80;99.90;;;;;;5097407;28;20471;-89
2022/10/28 12:53:43;;;;;;;4.83;0.50;;;21.80;99.90;;;;;;5096394;28;20430;-90
2022/10/28 12:56:15;;;;;;;0.53;0.53;;;21.70;99.90;;;;;;5096384;28;20424;-89
2022/10/28 12:58:54;;;;;;;0.67;0.60;;;21.70;99.90;;;;;;5096447;28;20424;-89
2022/10/28 13:01:24;;;;;;;3.27;0.80;;;21.70;99.90;;;;;;5096328;28;20479;-89
2022/10/28 13:03:51;;;;;;;0.67;0.40;;;21.80;99.90;;;;;;5096342;28;20819;-89
2022/10/28 13:06:32;;;;;;;2.73;0.60;;;21.90;99.90;;;;;;5096306;28;20479;-90